createdAt,value
2023-04-03T00:00:03.936Z,1.65
2023-04-03T00:02:31.392Z,1.65
2023-04-03T00:04:58.459Z,1.50
2023-04-03T00:07:25.692Z,1.30
2023-04-03T00:09:52.763Z,1.35
2023-04-03T00:12:19.845Z,1.58
2023-04-03T00:14:46.947Z,1.70
2023-04-03T00:17:13.992Z,1.33
2023-04-03T00:19:41.272Z,1.42
2023-04-03T00:22:08.325Z,1.33
2023-04-03T00:24:35.719Z,1.67
2023-04-03T00:27:02.879Z,1.45
2023-04-03T00:29:29.551Z,1.73
2023-04-03T00:31:56.632Z,1.60
2023-04-03T00:34:23.669Z,1.60
2023-04-03T00:36:50.381Z,1.45
2023-04-03T00:39:17.534Z,1.13
2023-04-03T00:41:44.447Z,1.52
2023-04-03T00:44:42.853Z,1.38
2023-04-03T00:47:12.571Z,1.65
2023-04-03T00:49:39.933Z,1.50
2023-04-03T00:52:14.781Z,1.50
2023-04-03T00:54:45.688Z,1.73
2023-04-03T00:57:13.027Z,1.48
2023-04-03T00:59:42.054Z,1.75
2023-04-03T01:02:08.792Z,1.65
2023-04-03T01:04:39.382Z,1.40
2023-04-03T01:07:09.947Z,1.50
2023-04-03T01:09:37.251Z,1.70
2023-04-03T01:12:28.427Z,1.17
2023-04-03T01:14:56.567Z,1.70
2023-04-03T01:17:45.640Z,1.70
2023-04-03T01:20:15.553Z,1.63
2023-04-03T01:23:17.754Z,1.40
2023-04-03T01:25:49.066Z,1.40
2023-04-03T01:28:22.091Z,1.67
2023-04-03T01:30:57.218Z,1.60
2023-04-03T01:33:24.304Z,1.60
2023-04-03T01:35:51.403Z,1.80
2023-04-03T01:38:18.498Z,1.40
2023-04-03T01:40:45.876Z,1.30
2023-04-03T01:43:13.029Z,1.70
2023-04-03T01:45:40.108Z,1.65
2023-04-03T01:48:07.506Z,1.70
2023-04-03T01:50:35.315Z,1.73
2023-04-03T01:53:02.671Z,1.77
2023-04-03T01:55:29.792Z,1.40
2023-04-03T01:57:56.929Z,1.83
2023-04-03T02:00:24.048Z,1.58
2023-04-03T02:02:51.233Z,1.35
2023-04-03T02:05:18.319Z,1.50
2023-04-03T02:07:45.520Z,1.60
2023-04-03T02:10:12.682Z,1.20
2023-04-03T02:12:39.806Z,1.50
2023-04-03T02:15:07.083Z,1.70
2023-04-03T02:17:34.193Z,1.23
2023-04-03T02:20:01.241Z,1.45
2023-04-03T02:22:28.428Z,1.58
2023-04-03T02:24:55.325Z,1.60
2023-04-03T02:27:22.656Z,1.30
2023-04-03T02:29:49.881Z,1.10
2023-04-03T02:32:17.024Z,1.50
2023-04-03T02:34:44.059Z,1.27
2023-04-03T02:37:11.183Z,1.60
2023-04-03T02:39:38.386Z,1.33
2023-04-03T02:42:07.715Z,1.50
2023-04-03T02:44:34.860Z,1.58
2023-04-03T02:47:01.941Z,0.93
2023-04-03T02:49:29.016Z,1.20
2023-04-03T02:51:56.102Z,1.35
2023-04-03T02:54:24.280Z,1.58
2023-04-03T02:56:51.738Z,1.48
2023-04-03T02:59:18.832Z,1.33
2023-04-03T03:01:45.891Z,1.40
2023-04-03T03:04:12.999Z,1.45
2023-04-03T03:06:40.164Z,1.38
2023-04-03T03:09:07.293Z,1.33
2023-04-03T03:11:34.433Z,1.55
2023-04-03T03:14:01.769Z,1.30
2023-04-03T03:16:29.078Z,1.50
2023-04-03T03:18:57.760Z,1.30
2023-04-03T03:21:24.974Z,1.23
2023-04-03T03:23:52.030Z,1.20
2023-04-03T03:26:19.175Z,1.33
2023-04-03T03:28:46.513Z,1.33
2023-04-03T03:31:13.745Z,1.70
2023-04-03T03:33:41.179Z,1.45
2023-04-03T03:36:08.407Z,1.80
2023-04-03T03:38:35.619Z,1.40
2023-04-03T03:41:02.300Z,1.63
2023-04-03T03:43:29.862Z,1.58
2023-04-03T03:45:56.678Z,1.85
2023-04-03T03:48:23.868Z,1.70
2023-04-03T03:50:51.014Z,1.65
2023-04-03T03:53:18.406Z,1.75
2023-04-03T03:55:45.694Z,1.45
2023-04-03T03:58:12.714Z,1.75
2023-04-03T04:00:39.819Z,1.75
2023-04-03T04:03:06.990Z,2.03
2023-04-03T04:05:33.709Z,2.17
2023-04-03T04:08:00.778Z,2.15
2023-04-03T04:10:27.926Z,1.88
2023-04-03T04:12:57.416Z,1.98
2023-04-03T04:15:26.537Z,1.90
2023-04-03T04:17:54.298Z,2.25
2023-04-03T04:20:21.477Z,1.83
2023-04-03T04:22:48.507Z,1.70
2023-04-03T04:25:15.565Z,2.58
2023-04-03T04:27:42.697Z,2.67
2023-04-03T04:30:10.055Z,2.30
2023-04-03T04:32:37.118Z,2.40
2023-04-03T04:35:04.883Z,2.58
2023-04-03T04:37:32.128Z,2.38
2023-04-03T04:39:58.810Z,1.95
2023-04-03T04:42:25.944Z,1.95
2023-04-03T04:44:53.128Z,2.50
2023-04-03T04:47:19.851Z,2.40
2023-04-03T04:49:48.362Z,2.05
2023-04-03T04:52:15.629Z,2.58
2023-04-03T04:54:42.426Z,2.33
2023-04-03T04:57:09.645Z,2.63
2023-04-03T04:59:36.771Z,2.25
2023-04-03T05:02:06.213Z,2.47
2023-04-03T05:04:34.135Z,2.15
2023-04-03T05:07:01.328Z,2.20
2023-04-03T05:09:28.473Z,2.05
2023-04-03T05:11:55.202Z,1.98
2023-04-03T05:14:22.306Z,2.20
2023-04-03T05:16:51.521Z,2.63
2023-04-03T05:19:19.956Z,1.85
2023-04-03T05:21:47.175Z,2.22
2023-04-03T05:24:14.255Z,2.00
2023-04-03T05:26:41.516Z,2.20
2023-04-03T05:29:08.514Z,2.13
2023-04-03T05:31:35.681Z,2.03
2023-04-03T05:34:02.414Z,1.70
2023-04-03T05:36:29.555Z,2.42
2023-04-03T05:38:57.374Z,2.40
2023-04-03T05:41:24.304Z,3.10
2023-04-03T05:43:50.976Z,2.10
2023-04-03T05:46:19.180Z,2.13
2023-04-03T05:48:46.553Z,2.35
2023-04-03T05:51:17.758Z,2.28
2023-04-03T05:53:45.839Z,2.50
2023-04-03T05:56:13.059Z,3.42
2023-04-03T05:58:40.219Z,2.40
2023-04-03T06:01:07.467Z,2.60
2023-04-03T06:03:35.577Z,2.22
2023-04-03T06:06:05.473Z,1.77
2023-04-03T06:08:32.462Z,2.08
2023-04-03T06:10:59.553Z,2.28
2023-04-03T06:13:26.375Z,2.25
2023-04-03T06:15:53.778Z,2.10
2023-04-03T06:18:22.528Z,2.40
2023-04-03T06:20:49.580Z,1.95
2023-04-03T06:23:16.833Z,1.88
2023-04-03T06:25:43.999Z,2.17
2023-04-03T06:28:11.165Z,2.03
2023-04-03T06:30:39.006Z,1.88
2023-04-03T06:33:06.059Z,2.30
2023-04-03T06:35:35.888Z,1.92
2023-04-03T06:38:04.932Z,1.67
2023-04-03T06:40:32.073Z,2.10
2023-04-03T06:42:59.074Z,2.20
2023-04-03T06:45:26.945Z,1.88
2023-04-03T06:47:54.090Z,1.90
2023-04-03T06:50:20.948Z,1.85
2023-04-03T06:52:48.062Z,2.15
2023-04-03T06:55:15.021Z,1.90
2023-04-03T06:57:42.035Z,2.00
2023-04-03T07:00:10.672Z,2.08
2023-04-03T07:02:37.769Z,2.00
2023-04-03T07:05:04.767Z,2.00
2023-04-03T07:07:31.932Z,1.60
2023-04-03T07:09:59.059Z,2.08
2023-04-03T07:12:26.350Z,1.92
2023-04-03T07:14:53.838Z,1.63
2023-04-03T07:17:20.970Z,2.25
2023-04-03T07:19:48.069Z,2.45
2023-04-03T07:22:15.199Z,1.88
2023-04-03T07:24:42.325Z,2.28
2023-04-03T07:27:09.481Z,2.28
2023-04-03T07:29:36.564Z,1.80
2023-04-03T07:32:04.907Z,2.00
2023-04-03T07:34:32.061Z,2.17
2023-04-03T07:36:59.159Z,1.85
2023-04-03T07:39:26.579Z,2.00
2023-04-03T07:41:53.642Z,2.13
2023-04-03T07:44:20.752Z,2.33
2023-04-03T07:46:48.013Z,2.10
2023-04-03T07:49:15.309Z,2.10
2023-04-03T07:51:42.717Z,1.95
2023-04-03T07:54:09.818Z,2.35
2023-04-03T07:56:36.540Z,2.00
2023-04-03T07:59:04.119Z,2.10
2023-04-03T08:01:33.425Z,1.83
2023-04-03T08:04:00.837Z,2.00
2023-04-03T08:06:42.005Z,2.25
2023-04-03T08:09:12.375Z,2.00
2023-04-03T08:11:40.859Z,2.22
2023-04-03T08:14:08.106Z,2.30
2023-04-03T08:16:35.458Z,1.77
2023-04-03T08:19:02.747Z,1.80
2023-04-03T08:21:29.848Z,2.05
2023-04-03T08:23:57.280Z,2.22
2023-04-03T08:26:24.336Z,2.00
2023-04-03T08:28:51.421Z,2.33
2023-04-03T08:31:20.858Z,2.60
2023-04-03T08:33:48.183Z,2.47
2023-04-03T08:36:21.125Z,2.17
2023-04-03T08:38:48.349Z,2.40
2023-04-03T08:41:19.714Z,2.20
2023-04-03T08:43:46.809Z,2.28
2023-04-03T08:46:17.196Z,2.38
2023-04-03T08:48:44.669Z,2.47
2023-04-03T08:51:17.368Z,2.95
2023-04-03T08:53:57.226Z,1.88
2023-04-03T08:56:26.587Z,1.77
2023-04-03T08:58:57.909Z,1.90
2023-04-03T09:01:30.457Z,2.20
2023-04-03T09:03:57.681Z,1.80
2023-04-03T09:06:33.666Z,1.77
2023-04-03T09:09:13.107Z,2.10
2023-04-03T09:11:53.588Z,1.83
2023-04-03T09:14:52.762Z,1.92
2023-04-03T09:17:36.565Z,2.17
2023-04-03T09:20:35.692Z,1.73
2023-04-03T09:23:06.451Z,1.35
2023-04-03T09:25:38.204Z,1.30
2023-04-03T09:28:10.606Z,1.50
2023-04-03T09:30:39.243Z,1.55
2023-04-03T09:33:08.043Z,1.50
2023-04-03T09:35:47.355Z,1.60
2023-04-03T09:38:15.729Z,1.30
2023-04-03T09:40:46.569Z,1.50
2023-04-03T09:43:25.322Z,1.63
2023-04-03T09:45:53.499Z,1.55
2023-04-03T09:48:23.025Z,1.90
2023-04-03T09:50:56.453Z,1.80
2023-04-03T09:53:29.030Z,1.70
2023-04-03T09:55:56.142Z,1.92
2023-04-03T09:58:25.515Z,1.80
2023-04-03T10:01:02.289Z,1.55
2023-04-03T10:03:34.562Z,2.05
2023-04-03T10:06:01.904Z,2.45
2023-04-03T10:08:32.337Z,1.75
2023-04-03T10:11:19.862Z,1.50
2023-04-03T10:13:57.697Z,1.90
2023-04-03T10:16:29.817Z,1.52
2023-04-03T10:19:21.504Z,1.50
2023-04-03T10:22:01.624Z,1.70
2023-04-03T10:24:37.369Z,1.70
2023-04-03T10:27:06.650Z,1.67
2023-04-03T10:29:40.701Z,1.67
2023-04-03T10:32:29.270Z,1.80
2023-04-03T10:35:13.363Z,1.90
2023-04-03T10:37:41.257Z,1.75
2023-04-03T10:40:41.448Z,1.95
2023-04-03T10:43:18.870Z,1.70
2023-04-03T10:45:55.311Z,1.80
2023-04-03T10:48:38.623Z,1.73
2023-04-03T10:51:05.976Z,1.40
2023-04-03T10:53:38.632Z,1.50
2023-04-03T10:56:23.295Z,1.70
2023-04-03T10:58:55.623Z,1.65
2023-04-03T11:01:28.277Z,1.50
2023-04-03T11:03:58.396Z,1.42
2023-04-03T11:06:34.064Z,1.50
2023-04-03T11:09:08.812Z,1.40
2023-04-03T11:11:38.766Z,1.45
2023-04-03T11:14:05.876Z,1.52
2023-04-03T11:16:50.891Z,2.13
2023-04-03T11:19:36.250Z,1.80
2023-04-03T11:22:33.105Z,1.58
2023-04-03T11:25:06.191Z,1.33
2023-04-03T11:27:59.160Z,1.80
2023-04-03T11:30:34.420Z,1.42
2023-04-03T11:33:22.781Z,1.70
2023-04-03T11:35:52.985Z,1.45
2023-04-03T11:38:27.838Z,1.33
2023-04-03T11:40:56.379Z,1.63
2023-04-03T11:43:26.495Z,1.70
2023-04-03T11:46:11.618Z,1.40
2023-04-03T11:48:38.224Z,1.45
2023-04-03T11:51:28.041Z,1.70
2023-04-03T11:53:55.142Z,1.67
2023-04-03T11:56:25.032Z,1.40
2023-04-03T11:59:14.705Z,1.50
2023-04-03T12:01:59.707Z,1.30
2023-04-03T12:04:28.712Z,1.50
2023-04-03T12:07:16.034Z,1.50
2023-04-03T12:09:43.072Z,1.55
2023-04-03T12:12:36.832Z,1.45
2023-04-03T12:15:23.860Z,1.50
2023-04-03T12:17:52.567Z,1.55
2023-04-03T12:20:39.792Z,1.70
2023-04-03T12:23:25.273Z,1.95
2023-04-03T12:25:52.793Z,1.67
2023-04-03T12:28:19.608Z,1.38
2023-04-03T12:30:47.432Z,1.20
2023-04-03T12:33:25.111Z,1.40
2023-04-03T12:36:09.381Z,1.38
2023-04-03T12:39:00.515Z,1.40
2023-04-03T12:41:31.456Z,1.33
2023-04-03T12:44:04.621Z,1.35
2023-04-03T12:46:43.112Z,1.30
2023-04-03T12:49:43.563Z,1.67
2023-04-03T12:52:34.047Z,1.15
2023-04-03T12:55:05.042Z,1.63
2023-04-03T12:57:33.401Z,1.40
2023-04-03T13:00:01.258Z,1.52
2023-04-03T13:02:31.401Z,1.15
2023-04-03T13:05:00.587Z,1.20
2023-04-03T13:07:32.637Z,1.40
2023-04-03T13:10:02.762Z,1.50
2023-04-03T13:12:32.324Z,1.30
2023-04-03T13:15:00.651Z,1.30
2023-04-03T13:17:28.757Z,1.15
2023-04-03T13:19:55.517Z,1.45
2023-04-03T13:22:31.347Z,1.20
2023-04-03T13:25:03.540Z,1.20
2023-04-03T13:27:32.128Z,1.20
2023-04-03T13:30:01.619Z,1.15
2023-04-03T13:32:30.938Z,1.00
2023-04-03T13:35:00.389Z,1.10
2023-04-03T13:37:34.290Z,1.48
2023-04-03T13:40:12.136Z,1.60
2023-04-03T13:42:42.254Z,1.25
2023-04-03T13:45:14.356Z,1.58
2023-04-03T13:47:42.746Z,1.40
2023-04-03T13:50:13.123Z,1.60
2023-04-03T13:52:44.674Z,1.80
2023-04-03T13:55:24.595Z,1.50
2023-04-03T13:58:02.017Z,1.63
2023-04-03T14:00:49.101Z,1.25
2023-04-03T14:03:22.103Z,1.38
2023-04-03T14:05:49.384Z,1.42
2023-04-03T14:08:17.103Z,1.50
2023-04-03T14:10:44.019Z,1.50
2023-04-03T14:13:14.571Z,1.60
2023-04-03T14:15:41.551Z,1.80
2023-04-03T14:18:11.584Z,1.70
2023-04-03T14:20:38.579Z,1.60
2023-04-03T14:23:05.377Z,1.70
2023-04-03T14:25:32.175Z,1.60
2023-04-03T14:28:00.932Z,1.65
2023-04-03T14:30:32.209Z,1.67
2023-04-03T14:32:59.722Z,1.85
2023-04-03T14:35:28.026Z,2.03
2023-04-03T14:37:57.258Z,2.10
2023-04-03T14:40:26.665Z,1.90
2023-04-03T14:42:55.982Z,1.80
2023-04-03T14:45:23.638Z,1.45
2023-04-03T14:47:53.203Z,1.83
2023-04-03T14:50:23.662Z,1.60
2023-04-03T14:52:52.532Z,1.65
2023-04-03T14:55:22.104Z,1.80
2023-04-03T14:57:48.924Z,1.60
2023-04-03T15:00:18.317Z,2.05
2023-04-03T15:02:48.734Z,1.55
2023-04-03T15:05:16.774Z,1.70
2023-04-03T15:07:46.584Z,1.65
2023-04-03T15:10:19.310Z,2.08
2023-04-03T15:12:46.968Z,1.90
2023-04-03T15:15:14.479Z,1.70
2023-04-03T15:17:41.565Z,1.40
2023-04-03T15:20:18.673Z,1.40
2023-04-03T15:22:45.297Z,1.40
2023-04-03T15:25:12.187Z,1.40
2023-04-03T15:27:39.636Z,1.63
2023-04-03T15:30:12.532Z,1.40
2023-04-03T15:32:39.488Z,1.60
2023-04-03T15:35:06.969Z,1.40
2023-04-03T15:37:33.771Z,1.40
2023-04-03T15:40:00.475Z,1.50
2023-04-03T15:42:27.250Z,1.30
2023-04-03T15:44:53.972Z,1.50
2023-04-03T15:47:20.868Z,1.55
2023-04-03T15:49:47.724Z,1.70
2023-04-03T15:52:14.571Z,1.65
2023-04-03T15:54:41.366Z,1.40
2023-04-03T15:57:08.193Z,1.50
2023-04-03T15:59:35.357Z,1.30
2023-04-03T16:02:03.221Z,1.42
2023-04-03T16:04:30.558Z,1.20
2023-04-03T16:06:57.712Z,1.50
2023-04-03T16:09:24.803Z,1.70
2023-04-03T16:11:51.927Z,1.50
2023-04-03T16:14:18.999Z,1.50
2023-04-03T16:16:46.150Z,1.92
2023-04-03T16:19:14.046Z,1.37
2023-04-03T16:21:41.180Z,1.38
2023-04-03T16:24:08.425Z,1.60
2023-04-03T16:26:35.488Z,1.40
2023-04-03T16:29:02.926Z,1.60
2023-04-03T16:31:30.204Z,1.42
2023-04-03T16:33:57.587Z,1.70
2023-04-03T16:36:25.649Z,1.67
2023-04-03T16:38:53.072Z,1.60
2023-04-03T16:41:20.499Z,1.42
2023-04-03T16:43:47.585Z,1.60
2023-04-03T16:46:14.711Z,1.88
2023-04-03T16:48:41.702Z,1.55
2023-04-03T16:51:09.019Z,1.40
2023-04-03T16:53:36.784Z,1.60
2023-04-03T16:56:03.891Z,1.30
2023-04-03T16:58:31.018Z,1.48
2023-04-03T17:00:58.203Z,1.60
2023-04-03T17:03:26.776Z,1.70
2023-04-03T17:05:53.680Z,1.60
2023-04-03T17:08:20.888Z,1.60
2023-04-03T17:10:50.185Z,1.50
2023-04-03T17:13:18.074Z,1.70
2023-04-03T17:15:45.181Z,1.50
2023-04-03T17:18:12.310Z,1.40
2023-04-03T17:20:39.562Z,1.60
2023-04-03T17:23:07.194Z,1.60
2023-04-03T17:25:34.328Z,1.63
2023-04-03T17:28:01.413Z,1.50
2023-04-03T17:30:28.550Z,1.58
2023-04-03T17:32:55.721Z,1.40
2023-04-03T17:35:24.025Z,1.40
2023-04-03T17:37:51.215Z,1.60
2023-04-03T17:40:18.725Z,1.25
2023-04-03T17:42:46.173Z,1.57
2023-04-03T17:45:13.309Z,3.75
2023-04-03T17:47:40.507Z,4.90
2023-04-03T17:50:08.306Z,3.45
2023-04-03T17:52:35.382Z,1.80
2023-04-03T17:55:03.622Z,1.70
2023-04-03T17:57:31.590Z,1.50
2023-04-03T17:59:58.745Z,1.77
2023-04-03T18:02:26.157Z,1.50
2023-04-03T18:04:54.073Z,1.73
2023-04-03T18:07:21.289Z,1.60
2023-04-03T18:09:48.913Z,1.45
2023-04-03T18:12:16.087Z,1.55
2023-04-03T18:14:43.257Z,1.38
2023-04-03T18:17:10.912Z,1.30
2023-04-03T18:19:38.251Z,1.38
2023-04-03T18:22:06.957Z,1.50
2023-04-03T18:24:34.795Z,1.30
2023-04-03T18:27:06.068Z,1.35
2023-04-03T18:29:34.474Z,1.10
2023-04-03T18:32:02.162Z,1.52
2023-04-03T18:34:29.294Z,1.20
2023-04-03T18:36:56.448Z,1.80
2023-04-03T18:39:24.870Z,1.25
2023-04-03T18:41:53.397Z,1.27
2023-04-03T18:44:21.900Z,1.20
2023-04-03T18:46:48.994Z,1.10
2023-04-03T18:49:18.089Z,1.10
2023-04-03T18:51:45.405Z,1.00
2023-04-03T18:54:12.478Z,1.35
2023-04-03T18:56:39.720Z,1.30
2023-04-03T18:59:06.907Z,1.20
2023-04-03T19:01:34.937Z,1.50
2023-04-03T19:04:02.207Z,1.40
2023-04-03T19:06:29.389Z,1.40
2023-04-03T19:08:56.794Z,1.50
2023-04-03T19:11:23.938Z,1.50
2023-04-03T19:14:13.971Z,1.40
2023-04-03T19:16:38.271Z,1.73
2023-04-03T19:19:05.420Z,1.67
2023-04-03T19:21:32.964Z,1.40
2023-04-03T19:24:00.247Z,1.40
2023-04-03T19:26:27.474Z,1.52
2023-04-03T19:28:54.636Z,1.63
2023-04-03T19:31:22.418Z,1.50
2023-04-03T19:33:50.020Z,1.70
2023-04-03T19:36:18.254Z,1.40
2023-04-03T19:38:45.458Z,1.60
2023-04-03T19:41:15.113Z,1.75
2023-04-03T19:43:42.433Z,1.70
2023-04-03T19:46:10.245Z,1.83
2023-04-03T19:48:37.556Z,1.50
2023-04-03T19:51:06.059Z,1.80
2023-04-03T19:53:33.287Z,1.50
2023-04-03T19:56:01.042Z,1.50
2023-04-03T19:58:29.719Z,1.33
2023-04-03T20:00:57.789Z,1.25
2023-04-03T20:03:25.280Z,1.40
2023-04-03T20:05:52.553Z,1.50
2023-04-03T20:08:19.816Z,1.38
2023-04-03T20:10:47.006Z,1.67
2023-04-03T20:13:14.501Z,1.30
2023-04-03T20:15:43.560Z,1.52
2023-04-03T20:18:17.869Z,1.60
2023-04-03T20:20:51.992Z,1.60
2023-04-03T20:23:19.401Z,1.50
2023-04-03T20:25:57.680Z,1.42
2023-04-03T20:28:34.400Z,1.33
2023-04-03T20:31:03.558Z,1.42
2023-04-03T20:33:30.750Z,1.40
2023-04-03T20:35:58.557Z,1.33
2023-04-03T20:38:26.151Z,1.40
2023-04-03T20:40:52.918Z,1.45
2023-04-03T20:43:21.763Z,1.33
2023-04-03T20:45:49.319Z,1.55
2023-04-03T20:48:18.043Z,1.50
2023-04-03T20:50:45.842Z,1.58
2023-04-03T20:53:13.403Z,1.50
2023-04-03T20:55:41.330Z,1.30
2023-04-03T20:58:08.620Z,1.60
2023-04-03T21:00:37.904Z,1.70
2023-04-03T21:03:05.701Z,1.60
2023-04-03T21:05:34.782Z,1.50
2023-04-03T21:08:21.855Z,1.48
2023-04-03T21:11:08.932Z,1.50
2023-04-03T21:13:56.216Z,1.50
2023-04-03T21:16:23.318Z,1.50
2023-04-03T21:18:55.602Z,1.42
2023-04-03T21:21:24.403Z,1.90
2023-04-03T21:23:52.531Z,1.90
2023-04-03T21:26:21.447Z,1.52
2023-04-03T21:28:50.506Z,1.42
2023-04-03T21:31:17.651Z,1.67
2023-04-03T21:33:45.179Z,1.77
2023-04-03T21:36:11.897Z,1.50
2023-04-03T21:38:38.657Z,1.50
2023-04-03T21:41:05.437Z,1.70
2023-04-03T21:43:32.277Z,1.67
2023-04-03T21:46:02.826Z,1.67
2023-04-03T21:48:30.689Z,1.63
2023-04-03T21:51:05.523Z,1.83
2023-04-03T21:53:34.503Z,1.98
2023-04-03T21:56:02.475Z,1.60
2023-04-03T21:58:33.897Z,1.98
2023-04-03T22:01:09.913Z,1.80
2023-04-03T22:03:37.575Z,2.05
2023-04-03T22:06:04.973Z,1.60
2023-04-03T22:08:31.695Z,1.90
2023-04-03T22:11:03.629Z,1.80
2023-04-03T22:13:30.909Z,1.60
2023-04-03T22:15:59.298Z,1.70
2023-04-03T22:18:27.152Z,1.83
2023-04-03T22:20:54.946Z,1.70
2023-04-03T22:23:22.339Z,2.00
2023-04-03T22:26:11.255Z,1.80
2023-04-03T22:28:42.637Z,1.75
2023-04-03T22:31:10.795Z,1.80
2023-04-03T22:33:38.116Z,1.63
2023-04-03T22:36:06.592Z,1.75
2023-04-03T22:38:34.982Z,1.73
2023-04-03T22:41:03.668Z,1.70
2023-04-03T22:43:32.614Z,2.00
2023-04-03T22:46:00.732Z,1.52
2023-04-03T22:48:27.689Z,1.80
2023-04-03T22:50:55.535Z,1.80
2023-04-03T22:53:22.608Z,1.90
2023-04-03T22:55:57.794Z,1.67
2023-04-03T22:58:26.166Z,1.77
2023-04-03T23:00:54.211Z,1.90
2023-04-03T23:03:23.167Z,1.50
2023-04-03T23:05:51.656Z,1.63
2023-04-03T23:08:19.040Z,1.70
2023-04-03T23:10:46.184Z,1.55
2023-04-03T23:13:12.993Z,1.60
2023-04-03T23:15:39.708Z,1.60
2023-04-03T23:18:06.554Z,1.58
2023-04-03T23:20:33.313Z,1.70
2023-04-03T23:23:00.145Z,1.45
2023-04-03T23:25:26.843Z,1.60
2023-04-03T23:27:53.724Z,1.45
2023-04-03T23:30:21.653Z,1.70
2023-04-03T23:32:48.609Z,1.77
2023-04-03T23:35:15.468Z,1.80
2023-04-03T23:37:42.697Z,1.53
2023-04-03T23:40:10.073Z,1.80
2023-04-03T23:42:36.745Z,1.90
2023-04-03T23:45:03.758Z,1.60
2023-04-03T23:47:30.464Z,1.60
2023-04-03T23:49:57.198Z,1.58
2023-04-03T23:52:23.922Z,1.80
2023-04-03T23:54:51.070Z,1.80
2023-04-03T23:57:17.705Z,1.73
2023-04-03T23:59:44.460Z,1.85
